sensor_id;sensor_type;location;lat;lon;timestamp;pressure;altitude;pressure_sealevel;temperature;humidity
11347;BME280;5728;42.722;23.258;2023-04-02T00:01:17;93892.25;;;8.07;78.94
11347;BME280;5728;42.722;23.258;2023-04-02T00:04:12;93894.69;;;8.13;78.01
11347;BME280;5728;42.722;23.258;2023-04-02T00:06:40;93877.81;;;7.97;77.62
11347;BME280;5728;42.722;23.258;2023-04-02T00:09:22;93911.38;;;7.97;77.67
11347;BME280;5728;42.722;23.258;2023-04-02T00:11:51;93888.75;;;8.08;77.67
11347;BME280;5728;42.722;23.258;2023-04-02T00:14:24;93898.28;;;8.06;77.39
11347;BME280;5728;42.722;23.258;2023-04-02T00:16:52;93888.72;;;8.11;77.67
11347;BME280;5728;42.722;23.258;2023-04-02T00:19:25;93895.53;;;8.15;77.29
11347;BME280;5728;42.722;23.258;2023-04-02T00:21:56;93889.31;;;8.24;77.20
11347;BME280;5728;42.722;23.258;2023-04-02T00:24:23;93888.44;;;8.23;77.00
11347;BME280;5728;42.722;23.258;2023-04-02T00:26:51;93878.84;;;8.33;75.70
11347;BME280;5728;42.722;23.258;2023-04-02T00:29:18;93878.84;;;8.33;76.14
11347;BME280;5728;42.722;23.258;2023-04-02T00:31:48;93879.59;;;8.37;76.54
11347;BME280;5728;42.722;23.258;2023-04-02T00:34:18;93877.50;;;8.12;77.73
11347;BME280;5728;42.722;23.258;2023-04-02T00:36:46;93880.25;;;8.03;77.66
11347;BME280;5728;42.722;23.258;2023-04-02T00:39:18;93886.56;;;7.90;78.60
11347;BME280;5728;42.722;23.258;2023-04-02T00:41:46;93877.34;;;7.77;78.19
11347;BME280;5728;42.722;23.258;2023-04-02T00:44:13;93880.47;;;7.94;77.38
11347;BME280;5728;42.722;23.258;2023-04-02T00:46:48;93876.50;;;8.19;75.99
11347;BME280;5728;42.722;23.258;2023-04-02T00:49:22;93874.44;;;8.37;75.65
11347;BME280;5728;42.722;23.258;2023-04-02T00:51:53;93878.09;;;8.26;76.11
11347;BME280;5728;42.722;23.258;2023-04-02T00:54:24;93878.16;;;8.22;75.97
11347;BME280;5728;42.722;23.258;2023-04-02T00:56:54;93880.84;;;8.17;76.30
11347;BME280;5728;42.722;23.258;2023-04-02T00:59:26;93877.13;;;8.32;75.85
11347;BME280;5728;42.722;23.258;2023-04-02T01:01:58;93876.88;;;8.01;75.52
11347;BME280;5728;42.722;23.258;2023-04-02T01:04:32;93884.50;;;8.07;76.79
11347;BME280;5728;42.722;23.258;2023-04-02T01:07:04;93875.69;;;8.17;76.55
11347;BME280;5728;42.722;23.258;2023-04-02T01:09:47;93885.00;;;8.24;76.23
11347;BME280;5728;42.722;23.258;2023-04-02T01:12:38;93879.66;;;8.33;76.40
11347;BME280;5728;42.722;23.258;2023-04-02T01:15:12;93875.50;;;8.26;76.17
11347;BME280;5728;42.722;23.258;2023-04-02T01:18:02;93881.31;;;8.36;75.74
11347;BME280;5728;42.722;23.258;2023-04-02T01:20:59;93889.00;;;7.96;78.22
11347;BME280;5728;42.722;23.258;2023-04-02T01:23:34;93881.84;;;7.66;79.76
11347;BME280;5728;42.722;23.258;2023-04-02T01:26:12;93888.19;;;7.50;81.03
11347;BME280;5728;42.722;23.258;2023-04-02T01:28:49;93885.72;;;7.44;81.30
11347;BME280;5728;42.722;23.258;2023-04-02T01:31:21;93878.25;;;7.29;82.03
11347;BME280;5728;42.722;23.258;2023-04-02T01:33:48;93892.69;;;7.39;81.45
11347;BME280;5728;42.722;23.258;2023-04-02T01:36:22;93891.69;;;7.46;81.94
11347;BME280;5728;42.722;23.258;2023-04-02T01:38:58;93893.75;;;7.75;80.90
11347;BME280;5728;42.722;23.258;2023-04-02T01:41:32;93894.88;;;7.60;82.44
11347;BME280;5728;42.722;23.258;2023-04-02T01:44:05;93896.91;;;7.43;82.80
11347;BME280;5728;42.722;23.258;2023-04-02T01:46:35;93893.50;;;7.41;81.86
11347;BME280;5728;42.722;23.258;2023-04-02T01:49:11;93890.88;;;7.44;82.58
11347;BME280;5728;42.722;23.258;2023-04-02T01:51:41;93894.50;;;7.34;83.43
11347;BME280;5728;42.722;23.258;2023-04-02T01:54:08;93893.53;;;7.38;83.84
11347;BME280;5728;42.722;23.258;2023-04-02T01:56:36;93897.13;;;7.31;84.82
11347;BME280;5728;42.722;23.258;2023-04-02T01:59:06;93892.22;;;7.17;86.09
11347;BME280;5728;42.722;23.258;2023-04-02T02:01:37;93895.53;;;7.24;86.20
11347;BME280;5728;42.722;23.258;2023-04-02T02:04:09;93894.63;;;7.26;85.81
11347;BME280;5728;42.722;23.258;2023-04-02T02:06:37;93885.56;;;7.02;86.21
11347;BME280;5728;42.722;23.258;2023-04-02T02:09:05;93883.00;;;7.01;86.97
11347;BME280;5728;42.722;23.258;2023-04-02T02:11:33;93889.09;;;6.95;87.63
11347;BME280;5728;42.722;23.258;2023-04-02T02:14:08;93894.22;;;6.98;88.29
11347;BME280;5728;42.722;23.258;2023-04-02T02:16:39;93885.91;;;6.81;88.67
11347;BME280;5728;42.722;23.258;2023-04-02T02:19:17;93883.09;;;6.95;88.93
11347;BME280;5728;42.722;23.258;2023-04-02T02:21:48;93892.44;;;6.46;88.05
11347;BME280;5728;42.722;23.258;2023-04-02T02:24:18;93881.56;;;6.83;89.08
11347;BME280;5728;42.722;23.258;2023-04-02T02:26:47;93881.06;;;6.60;88.70
11347;BME280;5728;42.722;23.258;2023-04-02T02:29:18;93887.13;;;6.58;88.68
11347;BME280;5728;42.722;23.258;2023-04-02T02:31:46;93882.34;;;6.30;89.30
11347;BME280;5728;42.722;23.258;2023-04-02T02:34:21;93884.97;;;6.29;90.58
11347;BME280;5728;42.722;23.258;2023-04-02T02:36:52;93885.75;;;6.32;90.52
11347;BME280;5728;42.722;23.258;2023-04-02T02:39:24;93891.78;;;6.30;89.64
11347;BME280;5728;42.722;23.258;2023-04-02T02:41:54;93882.53;;;6.18;90.42
11347;BME280;5728;42.722;23.258;2023-04-02T02:44:27;93884.97;;;6.29;90.07
11347;BME280;5728;42.722;23.258;2023-04-02T02:46:58;93880.72;;;6.25;88.39
11347;BME280;5728;42.722;23.258;2023-04-02T02:49:27;93885.66;;;6.41;87.95
11347;BME280;5728;42.722;23.258;2023-04-02T02:51:59;93884.59;;;6.53;86.97
11347;BME280;5728;42.722;23.258;2023-04-02T02:54:27;93877.81;;;6.49;85.29
11347;BME280;5728;42.722;23.258;2023-04-02T02:56:58;93881.94;;;6.61;85.10
11347;BME280;5728;42.722;23.258;2023-04-02T02:59:28;93873.81;;;6.86;83.64
11347;BME280;5728;42.722;23.258;2023-04-02T03:01:56;93879.19;;;6.71;85.11
11347;BME280;5728;42.722;23.258;2023-04-02T03:04:24;93880.63;;;6.87;85.28
11347;BME280;5728;42.722;23.258;2023-04-02T03:06:52;93877.41;;;6.76;84.57
11347;BME280;5728;42.722;23.258;2023-04-02T03:09:25;93882.84;;;6.55;85.70
11347;BME280;5728;42.722;23.258;2023-04-02T03:12:01;93885.53;;;6.48;85.95
11347;BME280;5728;42.722;23.258;2023-04-02T03:14:33;93882.19;;;6.44;86.84
11347;BME280;5728;42.722;23.258;2023-04-02T03:17:06;93887.97;;;6.58;86.44
11347;BME280;5728;42.722;23.258;2023-04-02T03:19:40;93894.84;;;6.59;86.62
11347;BME280;5728;42.722;23.258;2023-04-02T03:22:13;93899.94;;;6.61;86.50
11347;BME280;5728;42.722;23.258;2023-04-02T03:24:50;93913.66;;;6.64;86.80
11347;BME280;5728;42.722;23.258;2023-04-02T03:27:21;93890.69;;;6.48;86.45
11347;BME280;5728;42.722;23.258;2023-04-02T03:29:59;93893.03;;;6.64;85.92
11347;BME280;5728;42.722;23.258;2023-04-02T03:32:31;93880.06;;;6.72;86.66
11347;BME280;5728;42.722;23.258;2023-04-02T03:35:07;93887.16;;;6.56;85.80
11347;BME280;5728;42.722;23.258;2023-04-02T03:37:39;93889.75;;;6.53;85.71
11347;BME280;5728;42.722;23.258;2023-04-02T03:40:14;93896.09;;;6.29;85.80
11347;BME280;5728;42.722;23.258;2023-04-02T03:42:45;93897.03;;;6.24;86.75
11347;BME280;5728;42.722;23.258;2023-04-02T03:45:19;93893.19;;;6.52;86.50
11347;BME280;5728;42.722;23.258;2023-04-02T03:47:51;93910.22;;;6.62;86.72
11347;BME280;5728;42.722;23.258;2023-04-02T03:50:22;93896.88;;;6.36;85.86
11347;BME280;5728;42.722;23.258;2023-04-02T03:52:50;93894.25;;;6.39;87.04
11347;BME280;5728;42.722;23.258;2023-04-02T03:55:20;93899.03;;;6.04;87.50
11347;BME280;5728;42.722;23.258;2023-04-02T03:57:54;93902.78;;;6.44;87.32
11347;BME280;5728;42.722;23.258;2023-04-02T04:00:30;93886.56;;;6.36;86.87
11347;BME280;5728;42.722;23.258;2023-04-02T04:03:03;93894.16;;;6.47;86.61
11347;BME280;5728;42.722;23.258;2023-04-02T04:05:34;93900.47;;;6.23;87.79
11347;BME280;5728;42.722;23.258;2023-04-02T04:08:04;93903.84;;;6.28;87.27
11347;BME280;5728;42.722;23.258;2023-04-02T04:10:33;93909.50;;;5.89;87.58
11347;BME280;5728;42.722;23.258;2023-04-02T04:13:03;93909.66;;;5.70;89.62
11347;BME280;5728;42.722;23.258;2023-04-02T04:15:36;93914.69;;;5.79;89.57
11347;BME280;5728;42.722;23.258;2023-04-02T04:18:09;93903.69;;;5.67;89.75
11347;BME280;5728;42.722;23.258;2023-04-02T04:20:48;93915.59;;;5.75;89.61
11347;BME280;5728;42.722;23.258;2023-04-02T04:23:24;93914.50;;;6.01;90.02
11347;BME280;5728;42.722;23.258;2023-04-02T04:25:59;93917.94;;;5.97;90.01
11347;BME280;5728;42.722;23.258;2023-04-02T04:28:33;93915.91;;;6.23;89.25
11347;BME280;5728;42.722;23.258;2023-04-02T04:31:13;93919.63;;;5.99;88.08
11347;BME280;5728;42.722;23.258;2023-04-02T04:33:48;93932.47;;;6.04;88.52
11347;BME280;5728;42.722;23.258;2023-04-02T04:36:23;93924.53;;;6.20;88.03
11347;BME280;5728;42.722;23.258;2023-04-02T04:38:54;93929.75;;;6.14;88.78
11347;BME280;5728;42.722;23.258;2023-04-02T04:41:27;93930.78;;;6.00;89.12
11347;BME280;5728;42.722;23.258;2023-04-02T04:44:00;93934.00;;;6.17;90.39
11347;BME280;5728;42.722;23.258;2023-04-02T04:46:36;93923.41;;;6.39;89.69
11347;BME280;5728;42.722;23.258;2023-04-02T04:49:07;93928.34;;;6.56;88.51
11347;BME280;5728;42.722;23.258;2023-04-02T04:51:41;93933.91;;;6.26;87.72
11347;BME280;5728;42.722;23.258;2023-04-02T04:54:12;93932.81;;;6.43;86.91
11347;BME280;5728;42.722;23.258;2023-04-02T04:56:44;93934.78;;;6.86;86.64
11347;BME280;5728;42.722;23.258;2023-04-02T04:59:16;93936.03;;;7.16;85.75
11347;BME280;5728;42.722;23.258;2023-04-02T05:01:49;93936.31;;;7.51;84.94
11347;BME280;5728;42.722;23.258;2023-04-02T05:04:20;93943.06;;;7.58;84.52
11347;BME280;5728;42.722;23.258;2023-04-02T05:06:52;93938.94;;;7.48;83.66
11347;BME280;5728;42.722;23.258;2023-04-02T05:09:23;93932.91;;;7.49;82.49
11347;BME280;5728;42.722;23.258;2023-04-02T05:11:58;93933.78;;;6.96;83.70
11347;BME280;5728;42.722;23.258;2023-04-02T05:14:31;93940.31;;;7.17;84.38
11347;BME280;5728;42.722;23.258;2023-04-02T05:17:04;93936.94;;;7.15;82.83
11347;BME280;5728;42.722;23.258;2023-04-02T05:19:36;93939.56;;;7.62;82.43
11347;BME280;5728;42.722;23.258;2023-04-02T05:22:15;93946.47;;;8.06;81.14
11347;BME280;5728;42.722;23.258;2023-04-02T05:24:56;93947.47;;;8.00;79.75
11347;BME280;5728;42.722;23.258;2023-04-02T05:27:31;93952.50;;;8.06;79.34
11347;BME280;5728;42.722;23.258;2023-04-02T05:30:06;93947.81;;;8.28;80.06
11347;BME280;5728;42.722;23.258;2023-04-02T05:32:39;93945.31;;;8.65;78.96
11347;BME280;5728;42.722;23.258;2023-04-02T05:35:14;93953.59;;;9.17;76.91
11347;BME280;5728;42.722;23.258;2023-04-02T05:37:42;93950.44;;;9.75;75.85
11347;BME280;5728;42.722;23.258;2023-04-02T05:40:13;93951.78;;;9.90;74.14
11347;BME280;5728;42.722;23.258;2023-04-02T05:42:42;93954.50;;;10.19;73.76
11347;BME280;5728;42.722;23.258;2023-04-02T05:45:19;93955.06;;;10.30;74.10
11347;BME280;5728;42.722;23.258;2023-04-02T05:47:51;93958.94;;;10.46;73.82
11347;BME280;5728;42.722;23.258;2023-04-02T05:50:26;93967.88;;;10.65;73.58
11347;BME280;5728;42.722;23.258;2023-04-02T05:52:58;93965.09;;;11.01;79.75
11347;BME280;5728;42.722;23.258;2023-04-02T05:55:41;93969.41;;;11.29;74.66
11347;BME280;5728;42.722;23.258;2023-04-02T05:58:16;93967.56;;;10.76;72.75
11347;BME280;5728;42.722;23.258;2023-04-02T06:00:55;93963.84;;;11.41;71.67
11347;BME280;5728;42.722;23.258;2023-04-02T06:03:30;93962.44;;;11.85;71.67
11347;BME280;5728;42.722;23.258;2023-04-02T06:06:03;93964.38;;;10.96;70.50
11347;BME280;5728;42.722;23.258;2023-04-02T06:08:35;93963.19;;;11.35;69.66
11347;BME280;5728;42.722;23.258;2023-04-02T06:11:08;93966.38;;;11.43;70.76
11347;BME280;5728;42.722;23.258;2023-04-02T06:13:36;93984.81;;;11.89;69.81
11347;BME280;5728;42.722;23.258;2023-04-02T06:16:04;93976.03;;;12.43;68.82
11347;BME280;5728;42.722;23.258;2023-04-02T06:18:34;93959.78;;;12.61;67.80
11347;BME280;5728;42.722;23.258;2023-04-02T06:21:03;93970.28;;;13.04;65.58
11347;BME280;5728;42.722;23.258;2023-04-02T06:23:36;93974.44;;;13.33;65.62
11347;BME280;5728;42.722;23.258;2023-04-02T06:26:06;93967.81;;;13.24;63.67
11347;BME280;5728;42.722;23.258;2023-04-02T06:28:40;93975.28;;;12.87;64.13
11347;BME280;5728;42.722;23.258;2023-04-02T06:31:16;93972.31;;;13.21;63.80
11347;BME280;5728;42.722;23.258;2023-04-02T06:33:45;93967.41;;;13.13;63.18
11347;BME280;5728;42.722;23.258;2023-04-02T06:36:17;93965.34;;;12.75;65.67
11347;BME280;5728;42.722;23.258;2023-04-02T06:38:46;93970.53;;;12.75;64.84
11347;BME280;5728;42.722;23.258;2023-04-02T06:41:17;93969.63;;;12.99;65.01
11347;BME280;5728;42.722;23.258;2023-04-02T06:43:46;93963.88;;;13.14;64.15
11347;BME280;5728;42.722;23.258;2023-04-02T06:46:21;93969.50;;;13.02;64.19
11347;BME280;5728;42.722;23.258;2023-04-02T06:48:52;93973.34;;;12.92;64.11
11347;BME280;5728;42.722;23.258;2023-04-02T06:51:23;93968.63;;;13.48;61.50
11347;BME280;5728;42.722;23.258;2023-04-02T06:53:51;93987.84;;;13.46;60.90
11347;BME280;5728;42.722;23.258;2023-04-02T06:56:25;93977.31;;;14.12;61.16
11347;BME280;5728;42.722;23.258;2023-04-02T06:58:56;93984.56;;;13.40;59.12
11347;BME280;5728;42.722;23.258;2023-04-02T07:01:25;93982.84;;;13.39;60.24
11347;BME280;5728;42.722;23.258;2023-04-02T07:03:55;93992.88;;;13.72;58.86
11347;BME280;5728;42.722;23.258;2023-04-02T07:06:23;93981.34;;;13.56;56.94
11347;BME280;5728;42.722;23.258;2023-04-02T07:08:50;93993.91;;;13.68;60.21
11347;BME280;5728;42.722;23.258;2023-04-02T07:11:18;93990.44;;;14.51;58.50
11347;BME280;5728;42.722;23.258;2023-04-02T07:13:47;93987.41;;;13.99;57.02
11347;BME280;5728;42.722;23.258;2023-04-02T07:16:16;93983.06;;;13.78;58.42
11347;BME280;5728;42.722;23.258;2023-04-02T07:18:43;93987.09;;;14.27;57.33
11347;BME280;5728;42.722;23.258;2023-04-02T07:21:11;93995.31;;;14.79;56.81
11347;BME280;5728;42.722;23.258;2023-04-02T07:23:40;93996.44;;;15.12;54.55
11347;BME280;5728;42.722;23.258;2023-04-02T07:26:16;93994.69;;;15.31;54.08
11347;BME280;5728;42.722;23.258;2023-04-02T07:28:43;93989.28;;;15.54;52.39
11347;BME280;5728;42.722;23.258;2023-04-02T07:31:19;94013.66;;;15.16;50.36
11347;BME280;5728;42.722;23.258;2023-04-02T07:33:46;93999.75;;;14.97;50.85
11347;BME280;5728;42.722;23.258;2023-04-02T07:36:17;93997.50;;;15.08;55.71
11347;BME280;5728;42.722;23.258;2023-04-02T07:38:44;93997.66;;;15.79;58.80
11347;BME280;5728;42.722;23.258;2023-04-02T07:41:11;94000.25;;;15.05;55.50
11347;BME280;5728;42.722;23.258;2023-04-02T07:43:38;94000.94;;;15.47;54.77
11347;BME280;5728;42.722;23.258;2023-04-02T07:46:06;94010.84;;;15.39;48.87
11347;BME280;5728;42.722;23.258;2023-04-02T07:48:33;93994.28;;;15.40;56.72
11347;BME280;5728;42.722;23.258;2023-04-02T07:51:01;94013.88;;;16.22;53.84
11347;BME280;5728;42.722;23.258;2023-04-02T07:53:31;94006.03;;;15.50;50.30
11347;BME280;5728;42.722;23.258;2023-04-02T07:56:00;94012.22;;;14.08;52.37
11347;BME280;5728;42.722;23.258;2023-04-02T07:58:28;94016.75;;;14.66;52.25
11347;BME280;5728;42.722;23.258;2023-04-02T08:00:56;94009.69;;;14.68;53.64
11347;BME280;5728;42.722;23.258;2023-04-02T08:03:23;94026.44;;;14.63;52.76
11347;BME280;5728;42.722;23.258;2023-04-02T08:05:51;94013.22;;;14.26;54.03
11347;BME280;5728;42.722;23.258;2023-04-02T08:08:18;94015.19;;;13.79;56.00
11347;BME280;5728;42.722;23.258;2023-04-02T08:10:47;94018.50;;;14.04;55.54
11347;BME280;5728;42.722;23.258;2023-04-02T08:13:15;94020.09;;;14.28;56.06
11347;BME280;5728;42.722;23.258;2023-04-02T08:15:43;94022.22;;;14.19;53.87
11347;BME280;5728;42.722;23.258;2023-04-02T08:18:10;94017.91;;;14.39;53.99
11347;BME280;5728;42.722;23.258;2023-04-02T08:20:36;94018.41;;;14.05;53.23
11347;BME280;5728;42.722;23.258;2023-04-02T08:23:03;94021.69;;;14.11;52.50
11347;BME280;5728;42.722;23.258;2023-04-02T08:25:31;94021.03;;;14.05;53.37
11347;BME280;5728;42.722;23.258;2023-04-02T08:28:00;94023.91;;;14.41;54.36
11347;BME280;5728;42.722;23.258;2023-04-02T08:30:27;94019.09;;;15.11;51.29
11347;BME280;5728;42.722;23.258;2023-04-02T08:32:54;94029.66;;;14.90;51.56
11347;BME280;5728;42.722;23.258;2023-04-02T08:35:21;94025.34;;;14.68;52.12
11347;BME280;5728;42.722;23.258;2023-04-02T08:37:49;94014.41;;;14.99;52.35
11347;BME280;5728;42.722;23.258;2023-04-02T08:40:21;94020.59;;;15.17;52.05
11347;BME280;5728;42.722;23.258;2023-04-02T08:43:03;94022.38;;;15.54;52.33
11347;BME280;5728;42.722;23.258;2023-04-02T08:45:41;94017.94;;;16.10;49.92
11347;BME280;5728;42.722;23.258;2023-04-02T08:48:13;94021.94;;;15.81;50.03
11347;BME280;5728;42.722;23.258;2023-04-02T08:50:42;94021.13;;;15.62;50.00
11347;BME280;5728;42.722;23.258;2023-04-02T08:53:13;94025.81;;;16.27;50.63
11347;BME280;5728;42.722;23.258;2023-04-02T08:55:47;94025.06;;;16.42;47.68
11347;BME280;5728;42.722;23.258;2023-04-02T08:58:28;94029.59;;;16.39;47.66
11347;BME280;5728;42.722;23.258;2023-04-02T09:01:01;94022.78;;;16.01;48.19
11347;BME280;5728;42.722;23.258;2023-04-02T09:03:31;94019.84;;;16.07;48.72
11347;BME280;5728;42.722;23.258;2023-04-02T09:06:01;94029.88;;;15.61;49.05
11347;BME280;5728;42.722;23.258;2023-04-02T09:08:30;94028.31;;;15.76;49.87
11347;BME280;5728;42.722;23.258;2023-04-02T09:11:01;94028.84;;;16.01;47.95
11347;BME280;5728;42.722;23.258;2023-04-02T09:13:34;94026.19;;;15.28;48.07
11347;BME280;5728;42.722;23.258;2023-04-02T09:16:07;94033.78;;;15.14;48.90
11347;BME280;5728;42.722;23.258;2023-04-02T09:18:36;94026.94;;;15.50;49.92
11347;BME280;5728;42.722;23.258;2023-04-02T09:21:30;94033.84;;;15.51;48.79
11347;BME280;5728;42.722;23.258;2023-04-02T09:23:59;94021.16;;;15.42;50.10
11347;BME280;5728;42.722;23.258;2023-04-02T09:26:29;94032.22;;;15.49;48.59
11347;BME280;5728;42.722;23.258;2023-04-02T09:29:22;94034.88;;;15.08;48.87
11347;BME280;5728;42.722;23.258;2023-04-02T09:31:55;94033.81;;;14.74;50.25
11347;BME280;5728;42.722;23.258;2023-04-02T09:34:29;94026.28;;;14.67;50.23
11347;BME280;5728;42.722;23.258;2023-04-02T09:37:06;94023.00;;;14.83;49.47
11347;BME280;5728;42.722;23.258;2023-04-02T09:39:33;94019.44;;;15.04;49.13
11347;BME280;5728;42.722;23.258;2023-04-02T09:42:05;94022.47;;;14.95;49.46
11347;BME280;5728;42.722;23.258;2023-04-02T09:44:35;94017.56;;;15.45;47.34
11347;BME280;5728;42.722;23.258;2023-04-02T09:47:05;94016.22;;;15.73;46.78
11347;BME280;5728;42.722;23.258;2023-04-02T09:49:45;94024.31;;;15.11;47.92
11347;BME280;5728;42.722;23.258;2023-04-02T09:52:21;94007.22;;;15.04;48.22
11347;BME280;5728;42.722;23.258;2023-04-02T09:55:16;94002.88;;;15.42;47.53
11347;BME280;5728;42.722;23.258;2023-04-02T09:57:44;94002.81;;;15.25;47.35
11347;BME280;5728;42.722;23.258;2023-04-02T10:00:18;94011.94;;;15.72;47.34
11347;BME280;5728;42.722;23.258;2023-04-02T10:02:59;93995.19;;;15.20;47.29
11347;BME280;5728;42.722;23.258;2023-04-02T10:05:27;94007.53;;;15.17;47.42
11347;BME280;5728;42.722;23.258;2023-04-02T10:08:05;94001.16;;;15.04;49.07
11347;BME280;5728;42.722;23.258;2023-04-02T10:10:36;93998.50;;;15.61;49.79
11347;BME280;5728;42.722;23.258;2023-04-02T10:13:07;93988.94;;;16.15;48.08
11347;BME280;5728;42.722;23.258;2023-04-02T10:15:42;93990.47;;;16.19;46.90
11347;BME280;5728;42.722;23.258;2023-04-02T10:18:13;93991.91;;;16.43;44.33
11347;BME280;5728;42.722;23.258;2023-04-02T10:20:43;93984.38;;;17.37;43.65
11347;BME280;5728;42.722;23.258;2023-04-02T10:23:14;93987.16;;;17.34;44.27
11347;BME280;5728;42.722;23.258;2023-04-02T10:25:47;93991.75;;;17.13;43.62
11347;BME280;5728;42.722;23.258;2023-04-02T10:28:24;93994.75;;;16.73;46.07
11347;BME280;5728;42.722;23.258;2023-04-02T10:30:59;93989.25;;;16.94;44.53
11347;BME280;5728;42.722;23.258;2023-04-02T10:33:32;93996.88;;;16.82;45.52
11347;BME280;5728;42.722;23.258;2023-04-02T10:36:07;93997.66;;;16.32;46.58
11347;BME280;5728;42.722;23.258;2023-04-02T10:38:42;93995.00;;;15.62;46.80
11347;BME280;5728;42.722;23.258;2023-04-02T10:41:21;94010.59;;;15.82;46.06
11347;BME280;5728;42.722;23.258;2023-04-02T10:44:10;93986.59;;;15.91;46.71
11347;BME280;5728;42.722;23.258;2023-04-02T10:46:48;93981.38;;;15.91;45.53
11347;BME280;5728;42.722;23.258;2023-04-02T10:49:23;93989.88;;;16.82;45.59
11347;BME280;5728;42.722;23.258;2023-04-02T10:51:57;93976.56;;;16.87;44.09
11347;BME280;5728;42.722;23.258;2023-04-02T10:54:36;93987.44;;;18.07;42.45
11347;BME280;5728;42.722;23.258;2023-04-02T10:57:12;93982.22;;;17.76;41.09
11347;BME280;5728;42.722;23.258;2023-04-02T10:59:43;93970.16;;;18.03;41.94
11347;BME280;5728;42.722;23.258;2023-04-02T11:02:24;93965.56;;;18.82;40.06
11347;BME280;5728;42.722;23.258;2023-04-02T11:04:57;93970.03;;;18.66;40.57
11347;BME280;5728;42.722;23.258;2023-04-02T11:07:30;93974.31;;;19.25;39.75
11347;BME280;5728;42.722;23.258;2023-04-02T11:09:59;93985.00;;;19.22;36.93
11347;BME280;5728;42.722;23.258;2023-04-02T11:12:33;93961.47;;;19.62;36.88
11347;BME280;5728;42.722;23.258;2023-04-02T11:15:02;93971.59;;;20.36;35.14
11347;BME280;5728;42.722;23.258;2023-04-02T11:17:31;93980.97;;;18.13;37.31
11347;BME280;5728;42.722;23.258;2023-04-02T11:23:30;93971.81;;;19.37;36.08
11347;BME280;5728;42.722;23.258;2023-04-02T11:29:21;93972.34;;;19.14;35.75
11347;BME280;5728;42.722;23.258;2023-04-02T11:37:43;93953.78;;;19.03;36.73
11347;BME280;5728;42.722;23.258;2023-04-02T11:40:42;93957.53;;;17.64;39.06
11347;BME280;5728;42.722;23.258;2023-04-02T11:43:50;93954.84;;;18.71;38.87
11347;BME280;5728;42.722;23.258;2023-04-02T11:46:47;93951.72;;;20.18;35.75
11347;BME280;5728;42.722;23.258;2023-04-02T11:49:35;93959.28;;;20.88;33.94
11347;BME280;5728;42.722;23.258;2023-04-02T11:52:17;93942.75;;;20.47;33.32
11347;BME280;5728;42.722;23.258;2023-04-02T11:54:54;93939.44;;;20.95;34.01
11347;BME280;5728;42.722;23.258;2023-04-02T11:57:37;93943.06;;;20.43;34.38
11347;BME280;5728;42.722;23.258;2023-04-02T12:03:10;93959.69;;;19.63;34.43
11347;BME280;5728;42.722;23.258;2023-04-02T12:05:47;93949.06;;;18.94;36.17
11347;BME280;5728;42.722;23.258;2023-04-02T12:08:28;93949.28;;;19.88;35.17
11347;BME280;5728;42.722;23.258;2023-04-02T12:11:02;93951.38;;;19.83;35.08
11347;BME280;5728;42.722;23.258;2023-04-02T12:13:49;93945.97;;;19.01;34.79
11347;BME280;5728;42.722;23.258;2023-04-02T12:16:16;93937.41;;;18.40;36.09
11347;BME280;5728;42.722;23.258;2023-04-02T12:18:45;93944.75;;;19.49;35.27
11347;BME280;5728;42.722;23.258;2023-04-02T12:21:16;93936.59;;;19.11;35.98
11347;BME280;5728;42.722;23.258;2023-04-02T12:23:44;93936.03;;;19.21;35.82
11347;BME280;5728;42.722;23.258;2023-04-02T12:26:31;93946.34;;;19.24;34.74
11347;BME280;5728;42.722;23.258;2023-04-02T12:29:24;93946.78;;;18.74;36.54
11347;BME280;5728;42.722;23.258;2023-04-02T12:31:52;93950.31;;;18.59;36.00
11347;BME280;5728;42.722;23.258;2023-04-02T12:34:21;93942.56;;;18.71;36.28
11347;BME280;5728;42.722;23.258;2023-04-02T12:36:53;93941.59;;;18.58;35.68
11347;BME280;5728;42.722;23.258;2023-04-02T12:39:21;93935.72;;;18.39;35.99
11347;BME280;5728;42.722;23.258;2023-04-02T12:41:50;93929.03;;;18.63;35.80
11347;BME280;5728;42.722;23.258;2023-04-02T12:44:18;93929.94;;;19.48;35.07
11347;BME280;5728;42.722;23.258;2023-04-02T12:46:46;93916.22;;;20.50;33.04
11347;BME280;5728;42.722;23.258;2023-04-02T12:49:22;93913.72;;;21.37;31.72
11347;BME280;5728;42.722;23.258;2023-04-02T12:51:51;93912.34;;;21.44;31.71
11347;BME280;5728;42.722;23.258;2023-04-02T12:54:18;93918.34;;;20.83;31.65
11347;BME280;5728;42.722;23.258;2023-04-02T12:56:46;93916.41;;;20.47;32.40
11347;BME280;5728;42.722;23.258;2023-04-02T12:59:29;93920.47;;;20.90;32.34
11347;BME280;5728;42.722;23.258;2023-04-02T13:01:57;93907.06;;;21.44;30.72
11347;BME280;5728;42.722;23.258;2023-04-02T13:04:24;93918.75;;;20.39;32.69
11347;BME280;5728;42.722;23.258;2023-04-02T13:06:52;93918.56;;;19.48;33.24
11347;BME280;5728;42.722;23.258;2023-04-02T13:09:33;93917.28;;;20.21;33.86
11347;BME280;5728;42.722;23.258;2023-04-02T13:12:01;93932.41;;;21.09;31.56
11347;BME280;5728;42.722;23.258;2023-04-02T13:14:30;93911.66;;;21.17;31.63
11347;BME280;5728;42.722;23.258;2023-04-02T13:16:56;93900.59;;;21.48;30.08
11347;BME280;5728;42.722;23.258;2023-04-02T13:19:33;93905.59;;;21.76;30.41
11347;BME280;5728;42.722;23.258;2023-04-02T13:22:02;93942.25;;;20.67;31.23
11347;BME280;5728;42.722;23.258;2023-04-02T13:24:31;93935.22;;;20.80;30.30
11347;BME280;5728;42.722;23.258;2023-04-02T13:26:59;93907.41;;;21.02;29.67
11347;BME280;5728;42.722;23.258;2023-04-02T13:29:28;93913.97;;;21.09;29.93
11347;BME280;5728;42.722;23.258;2023-04-02T13:31:59;93902.06;;;21.65;28.86
11347;BME280;5728;42.722;23.258;2023-04-02T13:34:26;93899.50;;;22.23;27.92
11347;BME280;5728;42.722;23.258;2023-04-02T13:36:53;93918.91;;;22.46;29.77
11347;BME280;5728;42.722;23.258;2023-04-02T13:39:21;93904.94;;;21.85;28.90
11347;BME280;5728;42.722;23.258;2023-04-02T13:41:50;93899.34;;;21.53;29.11
11347;BME280;5728;42.722;23.258;2023-04-02T13:44:20;93895.25;;;21.73;29.25
11347;BME280;5728;42.722;23.258;2023-04-02T13:46:48;93892.53;;;21.26;29.49
11347;BME280;5728;42.722;23.258;2023-04-02T13:49:17;93912.97;;;20.20;30.56